Google Maps JavaScript API Example
Pilot Flight Report # 69703 Submitted by : AST332 on 2012-07-12
Date: 2012-07-12Aircraft: Cessna 182S Skylane
Flight No.: Not AvailableDistance (Nm): 81.83
Departure: FBMN - MaunDestination: FBGM - Gumare
 TimeFuelWeightSpeeds  
Out (Taxi)1142Z192 lbs3244 lbs Flight RulesIFR
Off (Takeoff)1147Z 3243 lbs83 ktsFlight Level5500
On (Landing)1227Z 3181 lbs65 ktsVSTD-48 ft/min
In (Ramp)1227Z132 lbs3180 lbs ZFW3051 lbs
Flight0.70  -  0:4060 lbs  Pax0
Block0.75  -  0:4560 lbs  Cargo0
Departure WeatherFBMN 121142Z 11105KT 100SM SCT080 28/10 A3009
Destination WeatherFBGM 121227Z 16602KT 100SM FEW018 20/12 A2997
Flight Comments